Terminal Aerodrome Forecast
Issued by NWS Los Angeles, CA

Home | Current Version | Previous Version | Text Only | Print | Product List | Glossary On
Versions: 1 2 3 4 5 6 7 8 9 10 11 12 13 14 15 16 17 18
000
FTUS46 KLOX 082012 AAB
TAFSMX
TAF AMD
KSMX 082012Z 0820/0918 20008KT 4SM -SHRA BR BKN015 OVC025
      TEMPO 0820/0822 2SM -RA BR
     FM090100 22008KT 3SM -RA BR OVC012
     FM090600 VRB03KT P6SM -SHRA SCT015 OVC025
     FM091200 VRB03KT P6SM VCSH OVC015=

USA.gov is the U.S. government's official web portal to all federal, state and local government web resources and services.